sensor_id;sensor_type;location;lat;lon;timestamp;pressure;altitude;pressure_sealevel;temperature;humidity
28935;BME280;16044;52.726;-2.108;2024-01-07T00:00:41;101435.09;;;0.26;100.00
28935;BME280;16044;52.726;-2.108;2024-01-07T00:03:11;101435.03;;;0.27;100.00
28935;BME280;16044;52.726;-2.108;2024-01-07T00:05:44;101437.41;;;0.32;100.00
28935;BME280;16044;52.726;-2.108;2024-01-07T00:08:15;101447.91;;;0.35;100.00
28935;BME280;16044;52.726;-2.108;2024-01-07T00:10:45;101448.69;;;0.37;100.00
28935;BME280;16044;52.726;-2.108;2024-01-07T00:13:18;101450.31;;;0.39;100.00
28935;BME280;16044;52.726;-2.108;2024-01-07T00:15:49;101447.41;;;0.44;100.00
28935;BME280;16044;52.726;-2.108;2024-01-07T00:18:20;101453.50;;;0.46;100.00
28935;BME280;16044;52.726;-2.108;2024-01-07T00:20:54;101452.53;;;0.47;100.00
28935;BME280;16044;52.726;-2.108;2024-01-07T00:23:24;101459.59;;;0.48;100.00
28935;BME280;16044;52.726;-2.108;2024-01-07T00:25:55;101459.44;;;0.51;100.00
28935;BME280;16044;52.726;-2.108;2024-01-07T00:28:25;101462.00;;;0.53;100.00
28935;BME280;16044;52.726;-2.108;2024-01-07T00:30:55;101465.72;;;0.50;100.00
28935;BME280;16044;52.726;-2.108;2024-01-07T00:33:26;101468.91;;;0.57;100.00
28935;BME280;16044;52.726;-2.108;2024-01-07T00:35:59;101468.00;;;0.56;100.00
28935;BME280;16044;52.726;-2.108;2024-01-07T00:38:29;101468.69;;;0.60;100.00
28935;BME280;16044;52.726;-2.108;2024-01-07T00:41:00;101473.94;;;0.62;100.00
28935;BME280;16044;52.726;-2.108;2024-01-07T00:43:30;101473.88;;;0.63;100.00
28935;BME280;16044;52.726;-2.108;2024-01-07T00:46:01;101468.53;;;0.63;100.00
28935;BME280;16044;52.726;-2.108;2024-01-07T00:48:31;101470.91;;;0.68;100.00
28935;BME280;16044;52.726;-2.108;2024-01-07T00:51:04;101473.59;;;0.68;100.00
28935;BME280;16044;52.726;-2.108;2024-01-07T00:53:35;101469.22;;;0.67;100.00
28935;BME280;16044;52.726;-2.108;2024-01-07T00:56:06;101477.03;;;0.70;100.00
28935;BME280;16044;52.726;-2.108;2024-01-07T00:58:36;101482.47;;;0.68;100.00
28935;BME280;16044;52.726;-2.108;2024-01-07T01:01:07;101486.94;;;0.68;100.00
28935;BME280;16044;52.726;-2.108;2024-01-07T01:03:37;101482.56;;;0.67;100.00
28935;BME280;16044;52.726;-2.108;2024-01-07T01:06:11;101491.50;;;0.66;100.00
28935;BME280;16044;52.726;-2.108;2024-01-07T01:08:42;101496.75;;;0.67;100.00
28935;BME280;16044;52.726;-2.108;2024-01-07T01:11:12;101495.72;;;0.70;100.00
28935;BME280;16044;52.726;-2.108;2024-01-07T01:13:42;101492.19;;;0.69;100.00
28935;BME280;16044;52.726;-2.108;2024-01-07T01:16:13;101492.03;;;0.72;100.00
28935;BME280;16044;52.726;-2.108;2024-01-07T01:18:45;101500.13;;;0.71;100.00
28935;BME280;16044;52.726;-2.108;2024-01-07T01:21:21;101507.34;;;0.69;100.00
28935;BME280;16044;52.726;-2.108;2024-01-07T01:23:51;101500.28;;;0.68;100.00
28935;BME280;16044;52.726;-2.108;2024-01-07T01:26:22;101513.47;;;0.71;100.00
28935;BME280;16044;52.726;-2.108;2024-01-07T01:28:52;101505.53;;;0.69;100.00
28935;BME280;16044;52.726;-2.108;2024-01-07T01:31:22;101511.72;;;0.70;100.00
28935;BME280;16044;52.726;-2.108;2024-01-07T01:33:53;101508.13;;;0.71;100.00
28935;BME280;16044;52.726;-2.108;2024-01-07T01:36:26;101510.78;;;0.71;100.00
28935;BME280;16044;52.726;-2.108;2024-01-07T01:38:56;101514.22;;;0.73;100.00
28935;BME280;16044;52.726;-2.108;2024-01-07T01:41:27;101520.41;;;0.73;100.00
28935;BME280;16044;52.726;-2.108;2024-01-07T01:43:57;101512.31;;;0.75;100.00
28935;BME280;16044;52.726;-2.108;2024-01-07T01:46:28;101515.75;;;0.77;100.00
28935;BME280;16044;52.726;-2.108;2024-01-07T01:48:59;101523.59;;;0.80;100.00
28935;BME280;16044;52.726;-2.108;2024-01-07T01:51:34;101520.31;;;0.75;100.00
28935;BME280;16044;52.726;-2.108;2024-01-07T01:54:05;101523.78;;;0.77;100.00
28935;BME280;16044;52.726;-2.108;2024-01-07T01:56:36;101526.34;;;0.78;100.00
28935;BME280;16044;52.726;-2.108;2024-01-07T01:59:06;101528.94;;;0.80;100.00
28935;BME280;16044;52.726;-2.108;2024-01-07T02:01:38;101530.66;;;0.81;100.00
28935;BME280;16044;52.726;-2.108;2024-01-07T02:04:10;101528.75;;;0.83;100.00
28935;BME280;16044;52.726;-2.108;2024-01-07T02:06:44;101534.09;;;0.83;100.00
28935;BME280;16044;52.726;-2.108;2024-01-07T02:09:15;101532.53;;;0.79;100.00
28935;BME280;16044;52.726;-2.108;2024-01-07T02:12:00;101535.75;;;0.86;100.00
28935;BME280;16044;52.726;-2.108;2024-01-07T02:14:31;101549.94;;;0.86;100.00
28935;BME280;16044;52.726;-2.108;2024-01-07T02:17:02;101546.34;;;0.87;100.00
28935;BME280;16044;52.726;-2.108;2024-01-07T02:19:32;101552.53;;;0.88;100.00
28935;BME280;16044;52.726;-2.108;2024-01-07T02:22:06;101557.84;;;0.88;100.00
28935;BME280;16044;52.726;-2.108;2024-01-07T02:24:39;101557.78;;;0.89;100.00
28935;BME280;16044;52.726;-2.108;2024-01-07T02:27:09;101558.53;;;0.91;100.00
28935;BME280;16044;52.726;-2.108;2024-01-07T02:29:40;101556.81;;;0.90;100.00
28935;BME280;16044;52.726;-2.108;2024-01-07T02:32:10;101558.53;;;0.91;100.00
28935;BME280;16044;52.726;-2.108;2024-01-07T02:34:40;101563.03;;;0.91;100.00
28935;BME280;16044;52.726;-2.108;2024-01-07T02:37:11;101569.22;;;0.91;100.00
28935;BME280;16044;52.726;-2.108;2024-01-07T02:39:44;101567.50;;;0.90;100.00
28935;BME280;16044;52.726;-2.108;2024-01-07T02:42:26;101570.06;;;0.92;100.00
28935;BME280;16044;52.726;-2.108;2024-01-07T02:44:57;101571.91;;;0.91;100.00
28935;BME280;16044;52.726;-2.108;2024-01-07T02:47:27;101569.16;;;0.93;100.00
28935;BME280;16044;52.726;-2.108;2024-01-07T02:49:57;101574.56;;;0.91;100.00
28935;BME280;16044;52.726;-2.108;2024-01-07T02:52:28;101563.69;;;0.94;100.00
28935;BME280;16044;52.726;-2.108;2024-01-07T02:55:01;101565.50;;;0.94;100.00
28935;BME280;16044;52.726;-2.108;2024-01-07T02:57:32;101569.91;;;0.95;100.00
28935;BME280;16044;52.726;-2.108;2024-01-07T03:00:03;101579.72;;;0.94;100.00
28935;BME280;16044;52.726;-2.108;2024-01-07T03:02:34;101572.50;;;0.96;100.00
28935;BME280;16044;52.726;-2.108;2024-01-07T03:05:06;101580.41;;;0.98;100.00
28935;BME280;16044;52.726;-2.108;2024-01-07T03:07:37;101586.63;;;0.99;100.00
28935;BME280;16044;52.726;-2.108;2024-01-07T03:10:11;101579.38;;;1.01;100.00
28935;BME280;16044;52.726;-2.108;2024-01-07T03:12:41;101577.47;;;1.03;100.00
28935;BME280;16044;52.726;-2.108;2024-01-07T03:15:12;101575.59;;;1.05;100.00
28935;BME280;16044;52.726;-2.108;2024-01-07T03:17:42;101585.28;;;1.06;100.00
28935;BME280;16044;52.726;-2.108;2024-01-07T03:20:13;101591.59;;;1.05;100.00
28935;BME280;16044;52.726;-2.108;2024-01-07T03:22:44;101598.63;;;1.06;100.00
28935;BME280;16044;52.726;-2.108;2024-01-07T03:25:17;101595.88;;;1.07;100.00
28935;BME280;16044;52.726;-2.108;2024-01-07T03:27:47;101605.56;;;1.10;100.00
28935;BME280;16044;52.726;-2.108;2024-01-07T03:30:18;101609.94;;;1.11;100.00
28935;BME280;16044;52.726;-2.108;2024-01-07T03:32:49;101611.66;;;1.12;100.00
28935;BME280;16044;52.726;-2.108;2024-01-07T03:35:19;101603.66;;;1.12;100.00
28935;BME280;16044;52.726;-2.108;2024-01-07T03:37:51;101606.22;;;1.13;100.00
28935;BME280;16044;52.726;-2.108;2024-01-07T03:40:24;101608.88;;;1.13;100.00
28935;BME280;16044;52.726;-2.108;2024-01-07T03:42:54;101622.22;;;1.13;100.00
28935;BME280;16044;52.726;-2.108;2024-01-07T03:45:25;101607.94;;;1.14;100.00
28935;BME280;16044;52.726;-2.108;2024-01-07T03:47:56;101619.47;;;1.15;100.00
28935;BME280;16044;52.726;-2.108;2024-01-07T03:50:26;101609.56;;;1.17;100.00
28935;BME280;16044;52.726;-2.108;2024-01-07T03:52:56;101607.88;;;1.16;100.00
28935;BME280;16044;52.726;-2.108;2024-01-07T03:55:29;101617.59;;;1.17;100.00
28935;BME280;16044;52.726;-2.108;2024-01-07T03:58:00;101617.59;;;1.17;100.00
28935;BME280;16044;52.726;-2.108;2024-01-07T04:00:30;101624.66;;;1.18;100.00
28935;BME280;16044;52.726;-2.108;2024-01-07T04:03:01;101613.81;;;1.21;100.00
28935;BME280;16044;52.726;-2.108;2024-01-07T04:05:32;101618.19;;;1.22;100.00
28935;BME280;16044;52.726;-2.108;2024-01-07T04:08:04;101622.66;;;1.22;100.00
28935;BME280;16044;52.726;-2.108;2024-01-07T04:10:37;101621.03;;;1.19;100.00
28935;BME280;16044;52.726;-2.108;2024-01-07T04:13:08;101635.94;;;1.23;100.00
28935;BME280;16044;52.726;-2.108;2024-01-07T04:15:38;101638.63;;;1.23;100.00
28935;BME280;16044;52.726;-2.108;2024-01-07T04:18:09;101632.31;;;1.24;100.00
28935;BME280;16044;52.726;-2.108;2024-01-07T04:20:39;101634.03;;;1.25;100.00
28935;BME280;16044;52.726;-2.108;2024-01-07T04:23:10;101632.91;;;1.29;100.00
28935;BME280;16044;52.726;-2.108;2024-01-07T04:25:43;101639.19;;;1.28;100.00
28935;BME280;16044;52.726;-2.108;2024-01-07T04:28:13;101650.66;;;1.30;100.00
28935;BME280;16044;52.726;-2.108;2024-01-07T04:30:44;101648.78;;;1.32;100.00
28935;BME280;16044;52.726;-2.108;2024-01-07T04:33:16;101643.44;;;1.32;100.00
28935;BME280;16044;52.726;-2.108;2024-01-07T04:35:46;101648.56;;;1.35;100.00
28935;BME280;16044;52.726;-2.108;2024-01-07T04:38:17;101646.69;;;1.38;100.00
28935;BME280;16044;52.726;-2.108;2024-01-07T04:40:50;101645.81;;;1.37;100.00
28935;BME280;16044;52.726;-2.108;2024-01-07T04:43:20;101644.78;;;1.40;100.00
28935;BME280;16044;52.726;-2.108;2024-01-07T04:45:51;101640.47;;;1.37;100.00
28935;BME280;16044;52.726;-2.108;2024-01-07T04:48:21;101642.22;;;1.38;100.00
28935;BME280;16044;52.726;-2.108;2024-01-07T04:50:52;101644.78;;;1.40;100.00
28935;BME280;16044;52.726;-2.108;2024-01-07T04:53:22;101654.44;;;1.42;100.00
28935;BME280;16044;52.726;-2.108;2024-01-07T04:55:55;101661.56;;;1.42;100.00
28935;BME280;16044;52.726;-2.108;2024-01-07T04:58:28;101649.00;;;1.44;100.00
28935;BME280;16044;52.726;-2.108;2024-01-07T05:00:59;101662.19;;;1.47;100.00
28935;BME280;16044;52.726;-2.108;2024-01-07T05:03:29;101658.72;;;1.45;100.00
28935;BME280;16044;52.726;-2.108;2024-01-07T05:06:01;101662.88;;;1.50;100.00
28935;BME280;16044;52.726;-2.108;2024-01-07T05:08:31;101666.59;;;1.48;100.00
28935;BME280;16044;52.726;-2.108;2024-01-07T05:11:04;101665.63;;;1.49;100.00
28935;BME280;16044;52.726;-2.108;2024-01-07T05:13:35;101669.06;;;1.51;100.00
28935;BME280;16044;52.726;-2.108;2024-01-07T05:16:06;101670.78;;;1.52;100.00
28935;BME280;16044;52.726;-2.108;2024-01-07T05:18:36;101671.66;;;1.52;100.00
28935;BME280;16044;52.726;-2.108;2024-01-07T05:21:07;101685.69;;;1.56;100.00
28935;BME280;16044;52.726;-2.108;2024-01-07T05:23:39;101675.00;;;1.56;100.00
28935;BME280;16044;52.726;-2.108;2024-01-07T05:26:12;101675.94;;;1.55;100.00
28935;BME280;16044;52.726;-2.108;2024-01-07T05:28:43;101687.50;;;1.55;100.00
28935;BME280;16044;52.726;-2.108;2024-01-07T05:31:16;101684.75;;;1.57;100.00
28935;BME280;16044;52.726;-2.108;2024-01-07T05:33:47;101690.94;;;1.58;100.00
28935;BME280;16044;52.726;-2.108;2024-01-07T05:36:17;101697.16;;;1.58;100.00
28935;BME280;16044;52.726;-2.108;2024-01-07T05:38:48;101699.66;;;1.61;100.00
28935;BME280;16044;52.726;-2.108;2024-01-07T05:41:21;101703.09;;;1.63;100.00
28935;BME280;16044;52.726;-2.108;2024-01-07T05:43:52;101706.53;;;1.65;100.00
28935;BME280;16044;52.726;-2.108;2024-01-07T05:46:23;101716.47;;;1.63;100.00
28935;BME280;16044;52.726;-2.108;2024-01-07T05:48:53;101705.56;;;1.66;100.00
28935;BME280;16044;52.726;-2.108;2024-01-07T05:51:24;101708.25;;;1.66;100.00
28935;BME280;16044;52.726;-2.108;2024-01-07T05:53:54;101710.06;;;1.66;100.00
28935;BME280;16044;52.726;-2.108;2024-01-07T05:56:27;101718.00;;;1.67;100.00
28935;BME280;16044;52.726;-2.108;2024-01-07T05:58:58;101717.22;;;1.65;100.00
28935;BME280;16044;52.726;-2.108;2024-01-07T06:01:28;101718.78;;;1.69;100.00
28935;BME280;16044;52.726;-2.108;2024-01-07T06:03:58;101723.25;;;1.69;100.00
28935;BME280;16044;52.726;-2.108;2024-01-07T06:06:29;101726.78;;;1.69;100.00
28935;BME280;16044;52.726;-2.108;2024-01-07T06:09:01;101717.72;;;1.72;100.00
28935;BME280;16044;52.726;-2.108;2024-01-07T06:11:34;101721.44;;;1.69;100.00
28935;BME280;16044;52.726;-2.108;2024-01-07T06:14:05;101721.44;;;1.69;100.00
28935;BME280;16044;52.726;-2.108;2024-01-07T06:16:35;101719.81;;;1.67;100.00
28935;BME280;16044;52.726;-2.108;2024-01-07T06:19:06;101719.06;;;1.65;100.00
28935;BME280;16044;52.726;-2.108;2024-01-07T06:21:37;101720.00;;;1.64;100.00
28935;BME280;16044;52.726;-2.108;2024-01-07T06:24:07;101730.69;;;1.64;100.00
28935;BME280;16044;52.726;-2.108;2024-01-07T06:26:41;101737.84;;;1.63;100.00
28935;BME280;16044;52.726;-2.108;2024-01-07T06:29:11;101738.84;;;1.61;100.00
28935;BME280;16044;52.726;-2.108;2024-01-07T06:31:44;101751.22;;;1.63;100.00
28935;BME280;16044;52.726;-2.108;2024-01-07T06:34:16;101753.69;;;1.66;100.00
28935;BME280;16044;52.726;-2.108;2024-01-07T06:36:46;101748.44;;;1.65;100.00
28935;BME280;16044;52.726;-2.108;2024-01-07T06:39:17;101753.69;;;1.66;100.00
28935;BME280;16044;52.726;-2.108;2024-01-07T06:41:50;101761.81;;;1.65;100.00
28935;BME280;16044;52.726;-2.108;2024-01-07T06:44:20;101767.16;;;1.65;100.00
28935;BME280;16044;52.726;-2.108;2024-01-07T06:46:50;101763.81;;;1.61;100.00
28935;BME280;16044;52.726;-2.108;2024-01-07T06:49:21;101774.66;;;1.58;100.00
28935;BME280;16044;52.726;-2.108;2024-01-07T06:51:51;101777.50;;;1.55;100.00
28935;BME280;16044;52.726;-2.108;2024-01-07T06:54:21;101780.06;;;1.56;100.00
28935;BME280;16044;52.726;-2.108;2024-01-07T06:56:55;101781.13;;;1.54;100.00
28935;BME280;16044;52.726;-2.108;2024-01-07T06:59:25;101787.16;;;1.58;100.00
28935;BME280;16044;52.726;-2.108;2024-01-07T07:01:55;101785.41;;;1.56;100.00
28935;BME280;16044;52.726;-2.108;2024-01-07T07:04:26;101793.53;;;1.55;100.00
28935;BME280;16044;52.726;-2.108;2024-01-07T07:06:57;101795.34;;;1.54;100.00
28935;BME280;16044;52.726;-2.108;2024-01-07T07:09:27;101798.88;;;1.55;100.00
28935;BME280;16044;52.726;-2.108;2024-01-07T07:12:00;101806.09;;;1.53;100.00
28935;BME280;16044;52.726;-2.108;2024-01-07T07:14:30;101813.97;;;1.56;100.00
28935;BME280;16044;52.726;-2.108;2024-01-07T07:17:01;101811.28;;;1.56;100.00
28935;BME280;16044;52.726;-2.108;2024-01-07T07:19:32;101810.34;;;1.57;100.00
28935;BME280;16044;52.726;-2.108;2024-01-07T07:22:03;101814.81;;;1.56;100.00
28935;BME280;16044;52.726;-2.108;2024-01-07T07:24:34;101814.03;;;1.54;100.00
28935;BME280;16044;52.726;-2.108;2024-01-07T07:27:07;101821.97;;;1.56;100.00
28935;BME280;16044;52.726;-2.108;2024-01-07T07:29:38;101820.78;;;1.62;100.00
28935;BME280;16044;52.726;-2.108;2024-01-07T07:32:08;101824.38;;;1.61;100.00
28935;BME280;16044;52.726;-2.108;2024-01-07T07:34:39;101832.31;;;1.62;100.00
28935;BME280;16044;52.726;-2.108;2024-01-07T07:37:09;101837.59;;;1.64;100.00
28935;BME280;16044;52.726;-2.108;2024-01-07T07:39:40;101836.53;;;1.66;100.00
28935;BME280;16044;52.726;-2.108;2024-01-07T07:42:13;101833.78;;;1.68;100.00
28935;BME280;16044;52.726;-2.108;2024-01-07T07:44:43;101842.69;;;1.68;100.00
28935;BME280;16044;52.726;-2.108;2024-01-07T07:47:15;101839.91;;;1.70;100.00
28935;BME280;16044;52.726;-2.108;2024-01-07T07:49:45;101841.66;;;1.71;100.00
28935;BME280;16044;52.726;-2.108;2024-01-07T07:52:17;101843.34;;;1.72;100.00
28935;BME280;16044;52.726;-2.108;2024-01-07T07:54:50;101854.66;;;1.77;100.00
28935;BME280;16044;52.726;-2.108;2024-01-07T07:57:24;101853.97;;;1.73;100.00
28935;BME280;16044;52.726;-2.108;2024-01-07T07:59:55;101854.75;;;1.75;100.00
28935;BME280;16044;52.726;-2.108;2024-01-07T08:02:30;101863.66;;;1.76;100.00
28935;BME280;16044;52.726;-2.108;2024-01-07T08:05:00;101866.13;;;1.79;100.00
28935;BME280;16044;52.726;-2.108;2024-01-07T08:07:31;101871.38;;;1.81;100.00
28935;BME280;16044;52.726;-2.108;2024-01-07T08:10:01;101873.13;;;1.82;100.00
28935;BME280;16044;52.726;-2.108;2024-01-07T08:12:35;101874.84;;;1.83;100.00
28935;BME280;16044;52.726;-2.108;2024-01-07T08:15:07;101874.75;;;1.84;100.00
28935;BME280;16044;52.726;-2.108;2024-01-07T08:17:38;101882.69;;;1.86;100.00
28935;BME280;16044;52.726;-2.108;2024-01-07T08:20:11;101880.81;;;1.88;100.00
28935;BME280;16044;52.726;-2.108;2024-01-07T08:22:42;101887.00;;;1.88;100.00
28935;BME280;16044;52.726;-2.108;2024-01-07T08:25:13;101882.50;;;1.89;100.00
28935;BME280;16044;52.726;-2.108;2024-01-07T08:27:46;101888.63;;;1.91;100.00
28935;BME280;16044;52.726;-2.108;2024-01-07T08:30:18;101889.59;;;1.90;100.00
28935;BME280;16044;52.726;-2.108;2024-01-07T08:32:49;101892.53;;;1.85;100.00
28935;BME280;16044;52.726;-2.108;2024-01-07T08:35:19;101894.94;;;1.90;100.00
28935;BME280;16044;52.726;-2.108;2024-01-07T08:37:53;101901.06;;;1.92;100.00
28935;BME280;16044;52.726;-2.108;2024-01-07T08:40:24;101905.63;;;1.90;100.00
28935;BME280;16044;52.726;-2.108;2024-01-07T08:42:57;101901.06;;;1.92;100.00
28935;BME280;16044;52.726;-2.108;2024-01-07T08:45:27;101909.78;;;1.95;100.00
28935;BME280;16044;52.726;-2.108;2024-01-07T08:47:58;101916.84;;;1.97;100.00
28935;BME280;16044;52.726;-2.108;2024-01-07T08:50:28;101910.47;;;1.99;100.00
28935;BME280;16044;52.726;-2.108;2024-01-07T08:52:59;101906.94;;;1.99;100.00
28935;BME280;16044;52.726;-2.108;2024-01-07T08:55:31;101919.44;;;1.98;100.00
28935;BME280;16044;52.726;-2.108;2024-01-07T08:58:04;101915.63;;;2.02;100.00
28935;BME280;16044;52.726;-2.108;2024-01-07T09:00:35;101919.28;;;2.01;100.00
28935;BME280;16044;52.726;-2.108;2024-01-07T09:03:06;101924.47;;;2.04;100.00
28935;BME280;16044;52.726;-2.108;2024-01-07T09:05:36;101931.53;;;2.05;100.00
28935;BME280;16044;52.726;-2.108;2024-01-07T09:08:07;101919.13;;;2.04;100.00
28935;BME280;16044;52.726;-2.108;2024-01-07T09:10:38;101928.00;;;2.05;100.00
28935;BME280;16044;52.726;-2.108;2024-01-07T09:13:11;101936.09;;;2.03;100.00
28935;BME280;16044;52.726;-2.108;2024-01-07T09:15:41;101929.63;;;2.07;100.00
28935;BME280;16044;52.726;-2.108;2024-01-07T09:18:12;101927.72;;;2.09;100.00
28935;BME280;16044;52.726;-2.108;2024-01-07T09:20:42;101933.06;;;2.09;100.00
28935;BME280;16044;52.726;-2.108;2024-01-07T09:23:13;101936.50;;;2.11;100.00
28935;BME280;16044;52.726;-2.108;2024-01-07T09:25:44;101940.78;;;2.16;100.00
28935;BME280;16044;52.726;-2.108;2024-01-07T09:28:17;101945.16;;;2.17;100.00
28935;BME280;16044;52.726;-2.108;2024-01-07T09:30:49;101946.88;;;2.18;100.00
28935;BME280;16044;52.726;-2.108;2024-01-07T09:33:19;101940.66;;;2.17;100.00
28935;BME280;16044;52.726;-2.108;2024-01-07T09:35:50;101957.41;;;2.21;100.00
28935;BME280;16044;52.726;-2.108;2024-01-07T09:38:31;101955.50;;;2.23;100.00
28935;BME280;16044;52.726;-2.108;2024-01-07T09:41:01;101953.59;;;2.25;100.00
28935;BME280;16044;52.726;-2.108;2024-01-07T09:43:35;101966.81;;;2.28;100.00
28935;BME280;16044;52.726;-2.108;2024-01-07T09:46:05;101969.66;;;2.25;100.00
28935;BME280;16044;52.726;-2.108;2024-01-07T09:48:36;101977.16;;;2.34;100.00
28935;BME280;16044;52.726;-2.108;2024-01-07T09:51:08;101977.00;;;2.37;100.00
28935;BME280;16044;52.726;-2.108;2024-01-07T09:53:41;101974.16;;;2.40;100.00
28935;BME280;16044;52.726;-2.108;2024-01-07T09:56:18;101975.88;;;2.41;100.00
28935;BME280;16044;52.726;-2.108;2024-01-07T09:58:52;101975.72;;;2.44;100.00
28935;BME280;16044;52.726;-2.108;2024-01-07T10:01:24;101992.44;;;2.48;100.00
28935;BME280;16044;52.726;-2.108;2024-01-07T10:03:55;101994.00;;;2.52;100.00
28935;BME280;16044;52.726;-2.108;2024-01-07T10:06:26;101996.59;;;2.53;100.00
28935;BME280;16044;52.726;-2.108;2024-01-07T10:08:58;101991.94;;;2.57;100.00
28935;BME280;16044;52.726;-2.108;2024-01-07T10:11:28;101997.16;;;2.59;100.00
28935;BME280;16044;52.726;-2.108;2024-01-07T10:14:02;102000.63;;;2.61;100.00
28935;BME280;16044;52.726;-2.108;2024-01-07T10:16:32;102009.34;;;2.64;100.00
28935;BME280;16044;52.726;-2.108;2024-01-07T10:19:03;102004.50;;;2.71;100.00
28935;BME280;16044;52.726;-2.108;2024-01-07T10:21:34;102009.66;;;2.74;100.00
28935;BME280;16044;52.726;-2.108;2024-01-07T10:24:09;102015.03;;;2.74;100.00
28935;BME280;16044;52.726;-2.108;2024-01-07T10:26:40;102014.69;;;2.80;100.00
28935;BME280;16044;52.726;-2.108;2024-01-07T10:29:14;102014.41;;;2.85;100.00
28935;BME280;16044;52.726;-2.108;2024-01-07T10:31:44;102008.28;;;2.83;100.00
28935;BME280;16044;52.726;-2.108;2024-01-07T10:34:14;102008.81;;;2.89;100.00
28935;BME280;16044;52.726;-2.108;2024-01-07T10:36:47;102006.28;;;2.86;100.00
28935;BME280;16044;52.726;-2.108;2024-01-07T10:39:17;102004.31;;;2.90;100.00
28935;BME280;16044;52.726;-2.108;2024-01-07T10:41:50;102013.03;;;2.93;100.00
28935;BME280;16044;52.726;-2.108;2024-01-07T10:44:30;102012.94;;;2.95;100.00
28935;BME280;16044;52.726;-2.108;2024-01-07T10:47:06;102009.38;;;2.95;100.00
28935;BME280;16044;52.726;-2.108;2024-01-07T10:49:40;102020.88;;;2.97;100.00
28935;BME280;16044;52.726;-2.108;2024-01-07T10:52:14;102010.16;;;2.97;100.00
28935;BME280;16044;52.726;-2.108;2024-01-07T10:54:47;102007.13;;;3.03;100.00
28935;BME280;16044;52.726;-2.108;2024-01-07T10:57:23;102017.72;;;3.04;100.00
28935;BME280;16044;52.726;-2.108;2024-01-07T11:00:00;102024.91;;;3.04;100.00
28935;BME280;16044;52.726;-2.108;2024-01-07T11:02:39;102031.25;;;3.03;100.00
28935;BME280;16044;52.726;-2.108;2024-01-07T11:05:17;102032.00;;;3.05;100.00
28935;BME280;16044;52.726;-2.108;2024-01-07T11:07:57;102026.38;;;3.09;100.00
28935;BME280;16044;52.726;-2.108;2024-01-07T11:10:38;102032.69;;;3.08;100.00
28935;BME280;16044;52.726;-2.108;2024-01-07T11:13:32;102025.34;;;3.12;100.00
28935;BME280;16044;52.726;-2.108;2024-01-07T11:16:08;102023.44;;;3.14;100.00
28935;BME280;16044;52.726;-2.108;2024-01-07T11:18:40;102024.97;;;3.18;100.00
28935;BME280;16044;52.726;-2.108;2024-01-07T11:21:20;102021.25;;;3.21;100.00
28935;BME280;16044;52.726;-2.108;2024-01-07T11:23:52;102029.78;;;3.27;100.00
28935;BME280;16044;52.726;-2.108;2024-01-07T11:26:23;102020.59;;;3.31;100.00
28935;BME280;16044;52.726;-2.108;2024-01-07T11:28:55;102024.91;;;3.34;100.00
28935;BME280;16044;52.726;-2.108;2024-01-07T11:31:45;102017.38;;;3.41;100.00
28935;BME280;16044;52.726;-2.108;2024-01-07T11:34:38;102027.13;;;3.42;100.00
28935;BME280;16044;52.726;-2.108;2024-01-07T11:37:11;102026.97;;;3.45;100.00
28935;BME280;16044;52.726;-2.108;2024-01-07T11:39:42;102022.44;;;3.45;100.00
28935;BME280;16044;52.726;-2.108;2024-01-07T11:42:13;102023.22;;;3.47;100.00
28935;BME280;16044;52.726;-2.108;2024-01-07T11:44:47;102021.31;;;3.49;100.00
28935;BME280;16044;52.726;-2.108;2024-01-07T11:47:22;102024.88;;;3.50;100.00
28935;BME280;16044;52.726;-2.108;2024-01-07T11:49:55;102024.50;;;3.56;100.00
28935;BME280;16044;52.726;-2.108;2024-01-07T11:52:27;102021.50;;;3.61;100.00
28935;BME280;16044;52.726;-2.108;2024-01-07T11:54:58;102018.56;;;3.65;100.00
28935;BME280;16044;52.726;-2.108;2024-01-07T11:57:30;102021.94;;;3.69;100.00
28935;BME280;16044;52.726;-2.108;2024-01-07T12:00:01;102019.03;;;3.72;100.00
28935;BME280;16044;52.726;-2.108;2024-01-07T12:02:34;102016.75;;;3.66;100.00
28935;BME280;16044;52.726;-2.108;2024-01-07T12:05:05;102014.91;;;3.66;100.00
28935;BME280;16044;52.726;-2.108;2024-01-07T12:07:36;102020.47;;;3.63;100.00
28935;BME280;16044;52.726;-2.108;2024-01-07T12:10:08;102016.66;;;3.67;100.00
28935;BME280;16044;52.726;-2.108;2024-01-07T12:12:41;102022.97;;;3.66;100.00
28935;BME280;16044;52.726;-2.108;2024-01-07T12:15:12;102015.78;;;3.67;100.00
28935;BME280;16044;52.726;-2.108;2024-01-07T12:17:54;102010.53;;;3.65;100.00
28935;BME280;16044;52.726;-2.108;2024-01-07T12:20:27;102008.09;;;3.61;100.00
28935;BME280;16044;52.726;-2.108;2024-01-07T12:23:05;102020.56;;;3.62;100.00
28935;BME280;16044;52.726;-2.108;2024-01-07T12:25:36;102015.38;;;3.59;100.00
28935;BME280;16044;52.726;-2.108;2024-01-07T12:28:07;102019.22;;;3.55;100.00
28935;BME280;16044;52.726;-2.108;2024-01-07T12:30:37;102019.72;;;3.61;100.00
28935;BME280;16044;52.726;-2.108;2024-01-07T12:33:10;102019.13;;;3.56;100.00
28935;BME280;16044;52.726;-2.108;2024-01-07T12:35:41;102011.84;;;3.58;100.00
28935;BME280;16044;52.726;-2.108;2024-01-07T12:38:12;102012.63;;;3.60;100.00
28935;BME280;16044;52.726;-2.108;2024-01-07T12:40:42;102001.81;;;3.62;100.00
28935;BME280;16044;52.726;-2.108;2024-01-07T12:43:13;102011.38;;;3.66;100.00
28935;BME280;16044;52.726;-2.108;2024-01-07T12:45:43;102014.06;;;3.66;100.00
28935;BME280;16044;52.726;-2.108;2024-01-07T12:48:16;102015.13;;;3.63;100.00
28935;BME280;16044;52.726;-2.108;2024-01-07T12:50:47;102014.44;;;3.60;100.00
28935;BME280;16044;52.726;-2.108;2024-01-07T12:53:18;102009.94;;;3.60;100.00
28935;BME280;16044;52.726;-2.108;2024-01-07T12:55:48;102011.84;;;3.58;100.00
28935;BME280;16044;52.726;-2.108;2024-01-07T12:58:19;102013.75;;;3.56;100.00
28935;BME280;16044;52.726;-2.108;2024-01-07T13:00:49;102012.03;;;3.55;100.00
28935;BME280;16044;52.726;-2.108;2024-01-07T13:03:22;102016.28;;;3.59;100.00